CPX765 Details

Departure: Indira Gandhi International Airport (VIDP)
Arrival: Chek Lap Kok International (VHHH)
Route: ALI R460 LKN A201 AAT A201B ANSOS A201 LSO A599 GULOT W146 XSJ W148 LXI A599 POU R473 SIERA


Current Weather Information
VIDP 260200Z 22002KT 1500 R28/P2000 R29/P2000 HZ NSC 29/15 Q1009 NOSIG
VHHH 260200Z 01004KT 9999 FEW018 SCT025 29/24 Q1012 NOSIG